sensor_id;sensor_type;location;lat;lon;timestamp;temperature;humidity
45715;DHT22;31430;61.646;24.704;2022-11-28T00:01:14;-2.40;99.90
45715;DHT22;31430;61.646;24.704;2022-11-28T00:03:40;-2.40;99.90
45715;DHT22;31430;61.646;24.704;2022-11-28T00:06:06;-2.40;99.90
45715;DHT22;31430;61.646;24.704;2022-11-28T00:08:32;-2.40;99.90
45715;DHT22;31430;61.646;24.704;2022-11-28T00:11:01;-2.50;99.90
45715;DHT22;31430;61.646;24.704;2022-11-28T00:13:27;-2.50;99.90
45715;DHT22;31430;61.646;24.704;2022-11-28T00:15:54;-2.40;99.90
45715;DHT22;31430;61.646;24.704;2022-11-28T00:18:19;-2.50;99.90
45715;DHT22;31430;61.646;24.704;2022-11-28T00:20:45;-2.50;99.90
45715;DHT22;31430;61.646;24.704;2022-11-28T00:23:11;-2.50;99.90
45715;DHT22;31430;61.646;24.704;2022-11-28T00:25:36;-2.40;99.90
45715;DHT22;31430;61.646;24.704;2022-11-28T00:28:02;-2.30;99.90
45715;DHT22;31430;61.646;24.704;2022-11-28T00:30:27;-2.30;99.90
45715;DHT22;31430;61.646;24.704;2022-11-28T00:32:53;-2.40;99.90
45715;DHT22;31430;61.646;24.704;2022-11-28T00:35:19;-2.30;99.90
45715;DHT22;31430;61.646;24.704;2022-11-28T00:37:44;-2.20;99.90
45715;DHT22;31430;61.646;24.704;2022-11-28T00:40:10;-2.30;99.90
45715;DHT22;31430;61.646;24.704;2022-11-28T00:42:35;-2.40;99.90
45715;DHT22;31430;61.646;24.704;2022-11-28T00:45:01;-2.30;99.90
45715;DHT22;31430;61.646;24.704;2022-11-28T00:47:27;-2.40;99.90
45715;DHT22;31430;61.646;24.704;2022-11-28T00:49:52;-2.40;99.90
45715;DHT22;31430;61.646;24.704;2022-11-28T00:52:18;-2.40;99.90
45715;DHT22;31430;61.646;24.704;2022-11-28T00:54:44;-2.30;99.90
45715;DHT22;31430;61.646;24.704;2022-11-28T00:57:09;-2.40;99.90
45715;DHT22;31430;61.646;24.704;2022-11-28T00:59:35;-2.40;99.90
45715;DHT22;31430;61.646;24.704;2022-11-28T01:02:00;-2.40;99.90
45715;DHT22;31430;61.646;24.704;2022-11-28T01:04:26;-2.40;99.90
45715;DHT22;31430;61.646;24.704;2022-11-28T01:06:52;-2.40;99.90
45715;DHT22;31430;61.646;24.704;2022-11-28T01:09:22;-2.40;99.90
45715;DHT22;31430;61.646;24.704;2022-11-28T01:11:49;-2.40;99.90
45715;DHT22;31430;61.646;24.704;2022-11-28T01:14:18;-2.30;99.90
45715;DHT22;31430;61.646;24.704;2022-11-28T01:16:44;-2.30;99.90
45715;DHT22;31430;61.646;24.704;2022-11-28T01:19:10;-2.20;99.90
45715;DHT22;31430;61.646;24.704;2022-11-28T01:21:36;-2.20;99.90
45715;DHT22;31430;61.646;24.704;2022-11-28T01:24:02;-2.20;99.90
45715;DHT22;31430;61.646;24.704;2022-11-28T01:26:28;-2.30;99.90
45715;DHT22;31430;61.646;24.704;2022-11-28T01:28:55;-2.30;99.90
45715;DHT22;31430;61.646;24.704;2022-11-28T01:31:23;-2.30;99.90
45715;DHT22;31430;61.646;24.704;2022-11-28T01:33:50;-2.30;99.90
45715;DHT22;31430;61.646;24.704;2022-11-28T01:36:16;-2.40;99.90
45715;DHT22;31430;61.646;24.704;2022-11-28T01:38:42;-2.30;99.90
45715;DHT22;31430;61.646;24.704;2022-11-28T01:41:08;-2.30;99.90
45715;DHT22;31430;61.646;24.704;2022-11-28T01:43:34;-2.20;99.90
45715;DHT22;31430;61.646;24.704;2022-11-28T01:46:01;-2.20;99.90
45715;DHT22;31430;61.646;24.704;2022-11-28T01:48:35;-2.30;99.90
45715;DHT22;31430;61.646;24.704;2022-11-28T01:51:05;-2.30;99.90
45715;DHT22;31430;61.646;24.704;2022-11-28T01:53:35;-2.20;99.90
45715;DHT22;31430;61.646;24.704;2022-11-28T01:56:05;-2.20;99.90
45715;DHT22;31430;61.646;24.704;2022-11-28T01:58:33;-2.20;99.90
45715;DHT22;31430;61.646;24.704;2022-11-28T02:01:01;-2.20;99.90
45715;DHT22;31430;61.646;24.704;2022-11-28T02:03:33;-2.30;99.90
45715;DHT22;31430;61.646;24.704;2022-11-28T02:06:02;-2.20;99.90
45715;DHT22;31430;61.646;24.704;2022-11-28T02:08:32;-2.10;99.90
45715;DHT22;31430;61.646;24.704;2022-11-28T02:22:57;-2.10;99.90
45715;DHT22;31430;61.646;24.704;2022-11-28T02:28:26;-2.10;99.90
45715;DHT22;31430;61.646;24.704;2022-11-28T02:31:22;-2.10;99.90
45715;DHT22;31430;61.646;24.704;2022-11-28T02:33:54;-2.10;99.90
45715;DHT22;31430;61.646;24.704;2022-11-28T02:39:26;-2.20;99.90
45715;DHT22;31430;61.646;24.704;2022-11-28T02:44:51;-2.10;99.90
45715;DHT22;31430;61.646;24.704;2022-11-28T02:47:38;-2.20;99.90
45715;DHT22;31430;61.646;24.704;2022-11-28T02:50:20;-2.20;99.90
45715;DHT22;31430;61.646;24.704;2022-11-28T02:52:58;-2.20;99.90
45715;DHT22;31430;61.646;24.704;2022-11-28T02:55:28;-2.10;99.90
45715;DHT22;31430;61.646;24.704;2022-11-28T02:57:54;-2.10;99.90
45715;DHT22;31430;61.646;24.704;2022-11-28T03:03:19;-2.10;99.90
45715;DHT22;31430;61.646;24.704;2022-11-28T03:06:13;-2.20;99.90
45715;DHT22;31430;61.646;24.704;2022-11-28T03:14:27;-2.10;99.90
45715;DHT22;31430;61.646;24.704;2022-11-28T03:19:39;-2.10;99.90
45715;DHT22;31430;61.646;24.704;2022-11-28T03:24:47;-2.10;99.90
45715;DHT22;31430;61.646;24.704;2022-11-28T03:27:54;-2.00;99.90
45715;DHT22;31430;61.646;24.704;2022-11-28T03:30:31;-2.00;99.90
45715;DHT22;31430;61.646;24.704;2022-11-28T03:33:02;-2.00;99.90
45715;DHT22;31430;61.646;24.704;2022-11-28T03:35:32;-2.00;99.90
45715;DHT22;31430;61.646;24.704;2022-11-28T03:38:04;-2.00;99.90
45715;DHT22;31430;61.646;24.704;2022-11-28T03:40:37;-2.00;99.90
45715;DHT22;31430;61.646;24.704;2022-11-28T03:43:10;-2.10;99.90
45715;DHT22;31430;61.646;24.704;2022-11-28T03:45:46;-2.10;99.90
45715;DHT22;31430;61.646;24.704;2022-11-28T03:48:22;-2.10;99.90
45715;DHT22;31430;61.646;24.704;2022-11-28T03:50:52;-2.00;99.90
45715;DHT22;31430;61.646;24.704;2022-11-28T03:53:27;-2.00;99.90
45715;DHT22;31430;61.646;24.704;2022-11-28T03:56:10;-2.00;99.90
45715;DHT22;31430;61.646;24.704;2022-11-28T03:58:54;-2.00;99.90
45715;DHT22;31430;61.646;24.704;2022-11-28T04:01:35;-2.00;99.90
45715;DHT22;31430;61.646;24.704;2022-11-28T04:09:41;-2.10;99.90
45715;DHT22;31430;61.646;24.704;2022-11-28T04:15:15;-2.10;99.90
45715;DHT22;31430;61.646;24.704;2022-11-28T04:23:25;-2.00;99.90
45715;DHT22;31430;61.646;24.704;2022-11-28T04:26:00;-2.00;99.90
45715;DHT22;31430;61.646;24.704;2022-11-28T04:28:30;-1.90;99.90
45715;DHT22;31430;61.646;24.704;2022-11-28T04:30:59;-2.00;99.90
45715;DHT22;31430;61.646;24.704;2022-11-28T04:33:28;-2.00;99.90
45715;DHT22;31430;61.646;24.704;2022-11-28T04:35:56;-1.90;99.90
45715;DHT22;31430;61.646;24.704;2022-11-28T04:38:23;-1.90;99.90
45715;DHT22;31430;61.646;24.704;2022-11-28T04:40:54;-1.90;99.90
45715;DHT22;31430;61.646;24.704;2022-11-28T04:43:45;-1.90;99.90
45715;DHT22;31430;61.646;24.704;2022-11-28T04:46:20;-1.90;99.90
45715;DHT22;31430;61.646;24.704;2022-11-28T04:48:49;-1.90;99.90
45715;DHT22;31430;61.646;24.704;2022-11-28T04:51:23;-1.90;99.90
45715;DHT22;31430;61.646;24.704;2022-11-28T04:56:29;-1.80;99.90
45715;DHT22;31430;61.646;24.704;2022-11-28T04:58:56;-1.80;99.90
45715;DHT22;31430;61.646;24.704;2022-11-28T05:01:26;-1.80;99.90
45715;DHT22;31430;61.646;24.704;2022-11-28T05:03:53;-1.90;99.90
45715;DHT22;31430;61.646;24.704;2022-11-28T05:06:33;-1.90;99.90
45715;DHT22;31430;61.646;24.704;2022-11-28T05:08:59;-1.80;99.90
45715;DHT22;31430;61.646;24.704;2022-11-28T05:11:25;-1.80;99.90
45715;DHT22;31430;61.646;24.704;2022-11-28T05:13:51;-1.80;99.90
45715;DHT22;31430;61.646;24.704;2022-11-28T05:16:17;-1.80;99.90
45715;DHT22;31430;61.646;24.704;2022-11-28T05:18:43;-1.80;99.90
45715;DHT22;31430;61.646;24.704;2022-11-28T05:21:08;-1.80;99.90
45715;DHT22;31430;61.646;24.704;2022-11-28T05:23:38;-1.80;99.90
45715;DHT22;31430;61.646;24.704;2022-11-28T05:26:26;-1.90;99.90
45715;DHT22;31430;61.646;24.704;2022-11-28T05:28:56;-1.80;99.90
45715;DHT22;31430;61.646;24.704;2022-11-28T05:31:22;-1.90;99.90
45715;DHT22;31430;61.646;24.704;2022-11-28T05:33:47;-1.80;99.90
45715;DHT22;31430;61.646;24.704;2022-11-28T05:36:13;-1.80;99.90
45715;DHT22;31430;61.646;24.704;2022-11-28T05:38:40;-1.80;99.90
45715;DHT22;31430;61.646;24.704;2022-11-28T05:41:06;-1.70;99.90
45715;DHT22;31430;61.646;24.704;2022-11-28T05:43:32;-1.80;99.90
45715;DHT22;31430;61.646;24.704;2022-11-28T05:45:57;-1.70;99.90
45715;DHT22;31430;61.646;24.704;2022-11-28T05:48:23;-1.70;99.90
45715;DHT22;31430;61.646;24.704;2022-11-28T05:50:49;-1.80;99.90
45715;DHT22;31430;61.646;24.704;2022-11-28T05:53:18;-1.80;99.90
45715;DHT22;31430;61.646;24.704;2022-11-28T05:55:45;-1.80;99.90
45715;DHT22;31430;61.646;24.704;2022-11-28T05:58:10;-1.70;99.90
45715;DHT22;31430;61.646;24.704;2022-11-28T06:00:36;-1.70;99.90
45715;DHT22;31430;61.646;24.704;2022-11-28T06:03:03;-1.60;99.90
45715;DHT22;31430;61.646;24.704;2022-11-28T06:05:29;-1.70;99.90
45715;DHT22;31430;61.646;24.704;2022-11-28T06:07:55;-1.70;99.90
45715;DHT22;31430;61.646;24.704;2022-11-28T06:10:21;-1.70;99.90
45715;DHT22;31430;61.646;24.704;2022-11-28T06:12:47;-1.70;99.90
45715;DHT22;31430;61.646;24.704;2022-11-28T06:15:13;-1.70;99.90
45715;DHT22;31430;61.646;24.704;2022-11-28T06:17:38;-1.70;99.90
45715;DHT22;31430;61.646;24.704;2022-11-28T06:20:05;-1.70;99.90
45715;DHT22;31430;61.646;24.704;2022-11-28T06:22:32;-1.70;99.90
45715;DHT22;31430;61.646;24.704;2022-11-28T06:24:58;-1.60;99.90
45715;DHT22;31430;61.646;24.704;2022-11-28T06:27:23;-1.60;99.90
45715;DHT22;31430;61.646;24.704;2022-11-28T06:29:49;-1.60;99.90
45715;DHT22;31430;61.646;24.704;2022-11-28T06:32:14;-1.60;99.90
45715;DHT22;31430;61.646;24.704;2022-11-28T06:34:40;-1.60;99.90
45715;DHT22;31430;61.646;24.704;2022-11-28T06:37:05;-1.60;99.90
45715;DHT22;31430;61.646;24.704;2022-11-28T06:39:31;-1.60;99.90
45715;DHT22;31430;61.646;24.704;2022-11-28T06:41:57;-1.60;99.90
45715;DHT22;31430;61.646;24.704;2022-11-28T06:44:22;-1.60;99.90
45715;DHT22;31430;61.646;24.704;2022-11-28T06:46:48;-1.60;99.90
45715;DHT22;31430;61.646;24.704;2022-11-28T06:49:13;-1.60;99.90
45715;DHT22;31430;61.646;24.704;2022-11-28T06:51:40;-1.60;99.90
45715;DHT22;31430;61.646;24.704;2022-11-28T06:54:06;-1.60;99.90
45715;DHT22;31430;61.646;24.704;2022-11-28T06:56:32;-1.60;99.90
45715;DHT22;31430;61.646;24.704;2022-11-28T06:58:58;-1.50;99.90
45715;DHT22;31430;61.646;24.704;2022-11-28T07:01:26;-1.60;99.90
45715;DHT22;31430;61.646;24.704;2022-11-28T07:03:52;-1.60;99.90
45715;DHT22;31430;61.646;24.704;2022-11-28T07:06:22;-1.60;99.90
45715;DHT22;31430;61.646;24.704;2022-11-28T07:08:48;-1.70;99.90
45715;DHT22;31430;61.646;24.704;2022-11-28T07:11:15;-1.80;99.90
45715;DHT22;31430;61.646;24.704;2022-11-28T07:13:42;-1.70;99.90
45715;DHT22;31430;61.646;24.704;2022-11-28T07:16:33;-1.70;99.90
45715;DHT22;31430;61.646;24.704;2022-11-28T07:18:59;-1.70;99.90
45715;DHT22;31430;61.646;24.704;2022-11-28T07:21:25;-1.70;99.90
45715;DHT22;31430;61.646;24.704;2022-11-28T07:23:51;-1.60;99.90
45715;DHT22;31430;61.646;24.704;2022-11-28T07:26:17;-1.60;99.90
45715;DHT22;31430;61.646;24.704;2022-11-28T07:28:43;-1.50;99.90
45715;DHT22;31430;61.646;24.704;2022-11-28T07:31:15;-1.60;99.90
45715;DHT22;31430;61.646;24.704;2022-11-28T07:33:43;-1.60;99.90
45715;DHT22;31430;61.646;24.704;2022-11-28T07:36:15;-1.70;99.90
45715;DHT22;31430;61.646;24.704;2022-11-28T07:38:41;-1.70;99.90
45715;DHT22;31430;61.646;24.704;2022-11-28T07:41:11;-1.70;99.90
45715;DHT22;31430;61.646;24.704;2022-11-28T07:43:38;-1.60;99.90
45715;DHT22;31430;61.646;24.704;2022-11-28T07:46:06;-1.50;99.90
45715;DHT22;31430;61.646;24.704;2022-11-28T07:48:32;-1.50;99.90
45715;DHT22;31430;61.646;24.704;2022-11-28T07:50:58;-1.40;99.90
45715;DHT22;31430;61.646;24.704;2022-11-28T07:53:24;-1.40;99.90
45715;DHT22;31430;61.646;24.704;2022-11-28T07:55:49;-1.40;99.90
45715;DHT22;31430;61.646;24.704;2022-11-28T07:58:15;-1.40;99.90
45715;DHT22;31430;61.646;24.704;2022-11-28T08:00:40;-1.30;99.90
45715;DHT22;31430;61.646;24.704;2022-11-28T08:03:06;-1.30;99.90
45715;DHT22;31430;61.646;24.704;2022-11-28T08:05:32;-1.20;99.90
45715;DHT22;31430;61.646;24.704;2022-11-28T08:07:58;-1.20;99.90
45715;DHT22;31430;61.646;24.704;2022-11-28T08:10:23;-1.20;99.90
45715;DHT22;31430;61.646;24.704;2022-11-28T08:12:49;-1.20;99.90
45715;DHT22;31430;61.646;24.704;2022-11-28T08:15:15;-1.20;99.90
45715;DHT22;31430;61.646;24.704;2022-11-28T08:17:40;-1.10;99.90
45715;DHT22;31430;61.646;24.704;2022-11-28T08:20:06;-1.10;99.90
45715;DHT22;31430;61.646;24.704;2022-11-28T08:22:32;-1.10;99.90
45715;DHT22;31430;61.646;24.704;2022-11-28T08:24:58;-1.00;99.90
45715;DHT22;31430;61.646;24.704;2022-11-28T08:27:23;-1.10;99.90
45715;DHT22;31430;61.646;24.704;2022-11-28T08:29:49;-1.20;99.90
45715;DHT22;31430;61.646;24.704;2022-11-28T08:32:15;-1.30;99.90
45715;DHT22;31430;61.646;24.704;2022-11-28T08:34:41;-1.30;99.90
45715;DHT22;31430;61.646;24.704;2022-11-28T08:37:06;-1.20;99.90
45715;DHT22;31430;61.646;24.704;2022-11-28T08:39:32;-1.30;99.90
45715;DHT22;31430;61.646;24.704;2022-11-28T08:41:58;-1.30;99.90
45715;DHT22;31430;61.646;24.704;2022-11-28T08:44:25;-1.20;99.90
45715;DHT22;31430;61.646;24.704;2022-11-28T08:46:52;-1.10;99.90
45715;DHT22;31430;61.646;24.704;2022-11-28T08:49:18;-1.10;99.90
45715;DHT22;31430;61.646;24.704;2022-11-28T08:51:43;-1.10;99.90
45715;DHT22;31430;61.646;24.704;2022-11-28T08:54:09;-1.00;99.90
45715;DHT22;31430;61.646;24.704;2022-11-28T08:56:35;-1.00;99.90
45715;DHT22;31430;61.646;24.704;2022-11-28T08:59:00;-1.10;99.90
45715;DHT22;31430;61.646;24.704;2022-11-28T09:01:26;-1.00;99.90
45715;DHT22;31430;61.646;24.704;2022-11-28T09:03:53;-1.00;99.90
45715;DHT22;31430;61.646;24.704;2022-11-28T09:06:20;-1.20;99.90
45715;DHT22;31430;61.646;24.704;2022-11-28T09:08:47;-1.30;99.90
45715;DHT22;31430;61.646;24.704;2022-11-28T09:11:15;-1.10;99.90
45715;DHT22;31430;61.646;24.704;2022-11-28T09:13:42;-1.00;99.90
45715;DHT22;31430;61.646;24.704;2022-11-28T09:16:08;-1.00;99.90
45715;DHT22;31430;61.646;24.704;2022-11-28T09:18:34;-1.00;99.90
45715;DHT22;31430;61.646;24.704;2022-11-28T09:21:04;-1.20;99.90
45715;DHT22;31430;61.646;24.704;2022-11-28T09:23:33;-1.10;99.90
45715;DHT22;31430;61.646;24.704;2022-11-28T09:25:59;-1.10;99.90
45715;DHT22;31430;61.646;24.704;2022-11-28T09:28:25;-1.00;99.90
45715;DHT22;31430;61.646;24.704;2022-11-28T09:31:03;-0.90;99.90
45715;DHT22;31430;61.646;24.704;2022-11-28T09:33:29;-0.90;99.90
45715;DHT22;31430;61.646;24.704;2022-11-28T09:35:55;-0.90;99.90
45715;DHT22;31430;61.646;24.704;2022-11-28T09:38:23;-1.10;99.90
45715;DHT22;31430;61.646;24.704;2022-11-28T09:40:48;-1.00;99.90
45715;DHT22;31430;61.646;24.704;2022-11-28T09:43:24;-1.00;99.90
45715;DHT22;31430;61.646;24.704;2022-11-28T09:45:52;-0.90;99.90
45715;DHT22;31430;61.646;24.704;2022-11-28T09:48:32;-0.90;99.90
45715;DHT22;31430;61.646;24.704;2022-11-28T09:51:48;-0.80;99.90
45715;DHT22;31430;61.646;24.704;2022-11-28T09:54:10;-0.90;99.90
45715;DHT22;31430;61.646;24.704;2022-11-28T09:56:37;-0.90;99.90
45715;DHT22;31430;61.646;24.704;2022-11-28T09:59:03;-0.80;99.90
45715;DHT22;31430;61.646;24.704;2022-11-28T10:04:22;-0.80;99.90
45715;DHT22;31430;61.646;24.704;2022-11-28T10:13:00;-0.90;99.90
45715;DHT22;31430;61.646;24.704;2022-11-28T10:18:27;-0.80;99.90
45715;DHT22;31430;61.646;24.704;2022-11-28T10:20:59;-0.90;99.90
45715;DHT22;31430;61.646;24.704;2022-11-28T10:23:32;-1.00;99.90
45715;DHT22;31430;61.646;24.704;2022-11-28T10:26:08;-1.00;99.90
45715;DHT22;31430;61.646;24.704;2022-11-28T10:28:40;-1.00;99.90
45715;DHT22;31430;61.646;24.704;2022-11-28T10:31:09;-0.90;99.90
45715;DHT22;31430;61.646;24.704;2022-11-28T10:33:40;-0.80;99.90
45715;DHT22;31430;61.646;24.704;2022-11-28T10:36:15;-0.70;99.90
45715;DHT22;31430;61.646;24.704;2022-11-28T10:38:46;-0.60;99.90
45715;DHT22;31430;61.646;24.704;2022-11-28T10:43:53;-0.60;99.90
45715;DHT22;31430;61.646;24.704;2022-11-28T10:55:19;-0.70;99.90
45715;DHT22;31430;61.646;24.704;2022-11-28T10:57:35;-0.90;99.90
45715;DHT22;31430;61.646;24.704;2022-11-28T11:00:15;-0.90;99.90
45715;DHT22;31430;61.646;24.704;2022-11-28T11:02:56;-0.80;99.90
45715;DHT22;31430;61.646;24.704;2022-11-28T11:05:26;-0.80;99.90
45715;DHT22;31430;61.646;24.704;2022-11-28T11:07:58;-0.80;99.90
45715;DHT22;31430;61.646;24.704;2022-11-28T11:12:57;-0.80;99.90
45715;DHT22;31430;61.646;24.704;2022-11-28T11:15:32;-0.80;99.90
45715;DHT22;31430;61.646;24.704;2022-11-28T11:18:04;-0.70;99.90
45715;DHT22;31430;61.646;24.704;2022-11-28T11:20:39;-0.60;99.90
45715;DHT22;31430;61.646;24.704;2022-11-28T11:23:15;-0.60;99.90
45715;DHT22;31430;61.646;24.704;2022-11-28T11:25:50;-0.80;99.90
45715;DHT22;31430;61.646;24.704;2022-11-28T11:28:38;-0.80;99.90
45715;DHT22;31430;61.646;24.704;2022-11-28T11:31:15;-0.70;99.90
45715;DHT22;31430;61.646;24.704;2022-11-28T11:33:41;-0.60;99.90
45715;DHT22;31430;61.646;24.704;2022-11-28T11:36:26;-0.60;99.90
45715;DHT22;31430;61.646;24.704;2022-11-28T11:39:13;-0.70;99.90
45715;DHT22;31430;61.646;24.704;2022-11-28T11:41:45;-0.70;99.90
45715;DHT22;31430;61.646;24.704;2022-11-28T11:46:59;-0.90;99.90
45715;DHT22;31430;61.646;24.704;2022-11-28T11:49:43;-0.90;99.90
45715;DHT22;31430;61.646;24.704;2022-11-28T11:54:57;-0.90;99.90
45715;DHT22;31430;61.646;24.704;2022-11-28T11:57:37;-1.00;99.90
45715;DHT22;31430;61.646;24.704;2022-11-28T12:00:09;-1.00;99.90
45715;DHT22;31430;61.646;24.704;2022-11-28T12:02:43;-1.00;99.90
45715;DHT22;31430;61.646;24.704;2022-11-28T12:09:06;-1.10;99.90
45715;DHT22;31430;61.646;24.704;2022-11-28T12:13:41;-1.00;99.90
45715;DHT22;31430;61.646;24.704;2022-11-28T12:16:20;-0.90;99.90
45715;DHT22;31430;61.646;24.704;2022-11-28T12:24:41;-0.90;99.90
45715;DHT22;31430;61.646;24.704;2022-11-28T12:28:12;-0.90;99.90
45715;DHT22;31430;61.646;24.704;2022-11-28T12:36:13;-0.80;99.90
45715;DHT22;31430;61.646;24.704;2022-11-28T12:47:05;-1.00;99.90
45715;DHT22;31430;61.646;24.704;2022-11-28T12:53:07;-0.80;99.90
45715;DHT22;31430;61.646;24.704;2022-11-28T13:10:03;-1.00;99.90
45715;DHT22;31430;61.646;24.704;2022-11-28T13:17:41;-1.00;99.90
45715;DHT22;31430;61.646;24.704;2022-11-28T13:20:31;-1.00;99.90
45715;DHT22;31430;61.646;24.704;2022-11-28T13:28:16;-1.10;99.90
45715;DHT22;31430;61.646;24.704;2022-11-28T13:30:56;-1.20;99.90
45715;DHT22;31430;61.646;24.704;2022-11-28T13:36:00;-1.20;99.90
45715;DHT22;31430;61.646;24.704;2022-11-28T13:41:23;-1.00;99.90
45715;DHT22;31430;61.646;24.704;2022-11-28T13:44:07;-1.00;99.90
45715;DHT22;31430;61.646;24.704;2022-11-28T13:46:41;-1.00;99.90
45715;DHT22;31430;61.646;24.704;2022-11-28T13:49:17;-1.10;99.90
45715;DHT22;31430;61.646;24.704;2022-11-28T13:51:43;-1.00;99.90
45715;DHT22;31430;61.646;24.704;2022-11-28T14:00:29;-1.00;99.90
45715;DHT22;31430;61.646;24.704;2022-11-28T14:02:43;-1.00;99.90
45715;DHT22;31430;61.646;24.704;2022-11-28T14:05:36;-1.10;99.90
45715;DHT22;31430;61.646;24.704;2022-11-28T14:08:04;-1.10;99.90
45715;DHT22;31430;61.646;24.704;2022-11-28T14:27:33;-1.30;99.90
45715;DHT22;31430;61.646;24.704;2022-11-28T14:30:00;-1.30;99.90
45715;DHT22;31430;61.646;24.704;2022-11-28T14:34:55;-1.50;99.90
45715;DHT22;31430;61.646;24.704;2022-11-28T14:39:50;-1.50;99.90
45715;DHT22;31430;61.646;24.704;2022-11-28T14:52:35;-1.50;99.90
45715;DHT22;31430;61.646;24.704;2022-11-28T14:55:03;-1.50;99.90
45715;DHT22;31430;61.646;24.704;2022-11-28T14:57:34;-1.60;99.90
45715;DHT22;31430;61.646;24.704;2022-11-28T15:05:27;-1.60;99.90
45715;DHT22;31430;61.646;24.704;2022-11-28T15:14:19;-1.70;99.90
45715;DHT22;31430;61.646;24.704;2022-11-28T15:16:46;-1.70;99.90
45715;DHT22;31430;61.646;24.704;2022-11-28T15:21:50;-1.70;99.90
45715;DHT22;31430;61.646;24.704;2022-11-28T15:24:28;-1.70;99.90
45715;DHT22;31430;61.646;24.704;2022-11-28T15:27:21;-1.60;99.90
45715;DHT22;31430;61.646;24.704;2022-11-28T15:32:19;-1.60;99.90
45715;DHT22;31430;61.646;24.704;2022-11-28T15:34:59;-1.60;99.90
45715;DHT22;31430;61.646;24.704;2022-11-28T15:37:33;-1.60;99.90
45715;DHT22;31430;61.646;24.704;2022-11-28T15:40:00;-1.70;99.90
45715;DHT22;31430;61.646;24.704;2022-11-28T15:42:33;-1.70;99.90
45715;DHT22;31430;61.646;24.704;2022-11-28T15:45:11;-1.60;99.90
45715;DHT22;31430;61.646;24.704;2022-11-28T15:47:43;-1.60;99.90
45715;DHT22;31430;61.646;24.704;2022-11-28T15:50:24;-1.60;99.90
45715;DHT22;31430;61.646;24.704;2022-11-28T15:53:17;-1.60;99.90
45715;DHT22;31430;61.646;24.704;2022-11-28T15:55:43;-1.50;99.90
45715;DHT22;31430;61.646;24.704;2022-11-28T15:58:11;-1.50;99.90
45715;DHT22;31430;61.646;24.704;2022-11-28T16:00:38;-1.60;99.90
45715;DHT22;31430;61.646;24.704;2022-11-28T16:03:06;-1.60;99.90
45715;DHT22;31430;61.646;24.704;2022-11-28T16:05:34;-1.50;99.90
45715;DHT22;31430;61.646;24.704;2022-11-28T16:08:00;-1.60;99.90
45715;DHT22;31430;61.646;24.704;2022-11-28T16:10:33;-1.60;99.90
45715;DHT22;31430;61.646;24.704;2022-11-28T16:13:09;-1.60;99.90
45715;DHT22;31430;61.646;24.704;2022-11-28T16:15:36;-1.60;99.90
45715;DHT22;31430;61.646;24.704;2022-11-28T16:18:02;-1.70;99.90
45715;DHT22;31430;61.646;24.704;2022-11-28T16:20:33;-1.70;99.90
45715;DHT22;31430;61.646;24.704;2022-11-28T16:23:06;-1.60;99.90
45715;DHT22;31430;61.646;24.704;2022-11-28T16:25:32;-1.50;99.90
45715;DHT22;31430;61.646;24.704;2022-11-28T16:27:58;-1.40;99.90
45715;DHT22;31430;61.646;24.704;2022-11-28T16:30:41;-1.40;99.90
45715;DHT22;31430;61.646;24.704;2022-11-28T16:33:32;-1.40;99.90
45715;DHT22;31430;61.646;24.704;2022-11-28T16:36:52;-1.50;99.90
45715;DHT22;31430;61.646;24.704;2022-11-28T16:41:37;-1.60;99.90
45715;DHT22;31430;61.646;24.704;2022-11-28T16:44:14;-1.50;99.90
45715;DHT22;31430;61.646;24.704;2022-11-28T16:46:50;-1.50;99.90
45715;DHT22;31430;61.646;24.704;2022-11-28T16:49:35;-1.40;99.90
45715;DHT22;31430;61.646;24.704;2022-11-28T16:54:52;-1.50;99.90
45715;DHT22;31430;61.646;24.704;2022-11-28T16:57:19;-1.40;99.90
45715;DHT22;31430;61.646;24.704;2022-11-28T16:59:46;-1.30;99.90
45715;DHT22;31430;61.646;24.704;2022-11-28T17:02:16;-1.30;99.90
45715;DHT22;31430;61.646;24.704;2022-11-28T17:04:43;-1.50;99.90
45715;DHT22;31430;61.646;24.704;2022-11-28T17:07:11;-1.60;99.90
45715;DHT22;31430;61.646;24.704;2022-11-28T17:09:39;-1.40;99.90
45715;DHT22;31430;61.646;24.704;2022-11-28T17:12:28;-1.40;99.90
45715;DHT22;31430;61.646;24.704;2022-11-28T17:14:54;-1.50;99.90
45715;DHT22;31430;61.646;24.704;2022-11-28T17:17:22;-1.50;99.90
45715;DHT22;31430;61.646;24.704;2022-11-28T17:19:48;-1.50;99.90
45715;DHT22;31430;61.646;24.704;2022-11-28T17:22:36;-1.40;99.90
45715;DHT22;31430;61.646;24.704;2022-11-28T17:25:03;-1.30;99.90
45715;DHT22;31430;61.646;24.704;2022-11-28T17:27:30;-1.30;99.90
45715;DHT22;31430;61.646;24.704;2022-11-28T17:29:56;-1.30;99.90
45715;DHT22;31430;61.646;24.704;2022-11-28T17:32:21;-1.40;99.90
45715;DHT22;31430;61.646;24.704;2022-11-28T17:34:47;-1.50;99.90
45715;DHT22;31430;61.646;24.704;2022-11-28T17:37:13;-1.60;99.90
45715;DHT22;31430;61.646;24.704;2022-11-28T17:39:38;-1.60;99.90
45715;DHT22;31430;61.646;24.704;2022-11-28T17:42:24;-1.50;99.90
45715;DHT22;31430;61.646;24.704;2022-11-28T17:44:50;-1.60;99.90
45715;DHT22;31430;61.646;24.704;2022-11-28T17:47:15;-1.60;99.90
45715;DHT22;31430;61.646;24.704;2022-11-28T17:49:41;-1.50;99.90
45715;DHT22;31430;61.646;24.704;2022-11-28T17:52:06;-1.50;99.90
45715;DHT22;31430;61.646;24.704;2022-11-28T17:54:33;-1.50;99.90
45715;DHT22;31430;61.646;24.704;2022-11-28T17:56:59;-1.60;99.90
45715;DHT22;31430;61.646;24.704;2022-11-28T17:59:24;-1.60;99.90
45715;DHT22;31430;61.646;24.704;2022-11-28T18:01:51;-1.50;99.90
45715;DHT22;31430;61.646;24.704;2022-11-28T18:04:17;-1.70;99.90
45715;DHT22;31430;61.646;24.704;2022-11-28T18:06:44;-1.60;99.90
45715;DHT22;31430;61.646;24.704;2022-11-28T18:09:10;-1.60;99.90
45715;DHT22;31430;61.646;24.704;2022-11-28T18:11:36;-1.60;99.90
45715;DHT22;31430;61.646;24.704;2022-11-28T18:14:04;-1.60;99.90
45715;DHT22;31430;61.646;24.704;2022-11-28T18:16:30;-1.60;99.90
45715;DHT22;31430;61.646;24.704;2022-11-28T18:18:55;-1.50;99.90
45715;DHT22;31430;61.646;24.704;2022-11-28T18:21:21;-1.60;99.90
45715;DHT22;31430;61.646;24.704;2022-11-28T18:23:47;-1.50;99.90
45715;DHT22;31430;61.646;24.704;2022-11-28T18:26:19;-1.50;99.90
45715;DHT22;31430;61.646;24.704;2022-11-28T18:28:45;-1.50;99.90
45715;DHT22;31430;61.646;24.704;2022-11-28T18:31:12;-1.60;99.90
45715;DHT22;31430;61.646;24.704;2022-11-28T18:33:39;-1.60;99.90
45715;DHT22;31430;61.646;24.704;2022-11-28T18:36:11;-1.70;99.90
45715;DHT22;31430;61.646;24.704;2022-11-28T18:38:37;-1.60;99.90
45715;DHT22;31430;61.646;24.704;2022-11-28T18:41:04;-1.50;99.90
45715;DHT22;31430;61.646;24.704;2022-11-28T18:43:31;-1.50;99.90
45715;DHT22;31430;61.646;24.704;2022-11-28T18:46:12;-1.40;99.90
45715;DHT22;31430;61.646;24.704;2022-11-28T18:48:40;-1.40;99.90
45715;DHT22;31430;61.646;24.704;2022-11-28T18:51:11;-1.50;99.90
45715;DHT22;31430;61.646;24.704;2022-11-28T18:53:38;-1.50;99.90
45715;DHT22;31430;61.646;24.704;2022-11-28T18:56:04;-1.50;99.90